Time;durP1;ratioP1;P1;durP2;ratioP2;P2;SDS_P1;SDS_P2;PMS_P1;PMS_P2;Temp;Humidity;BMP_temperature;BMP_pressure;BME280_temperature;BME280_humidity;BME280_pressure;Samples;Min_cycle;Max_cycle;Signal;HPM_P1;HPM_P2
2024/02/18 00:01:33;;;;;;;;;;;;;;;;;;2212678;59;1978;-19
2024/02/18 00:04:04;;;;;;;;;;;;;;;;;;2210873;66;2494;-19
2024/02/18 00:06:35;;;;;;;;;;;;;;;;;;2211758;67;2330;-19
2024/02/18 00:09:06;;;;;;;;;;;;;;;;;;2210563;67;1899;-19
2024/02/18 00:11:36;;;;;;;;;;;;;;;;;;2211129;67;2069;-19
2024/02/18 00:14:06;;;;;;;;;;;;;;;;;;2212281;59;2200;-19
2024/02/18 00:16:38;;;;;;;;;;;;;;;;;;2212471;66;1857;-19
2024/02/18 00:19:09;;;;;;;;;;;;;;;;;;2211375;67;2344;-19
2024/02/18 00:21:39;;;;;;;;;;;;;;;;;;2211331;66;2538;-19
2024/02/18 00:24:09;;;;;;;;;;;;;;;;;;2210304;59;2039;-19
2024/02/18 00:26:40;;;;;;;;;;;;;;;;;;2208390;67;1925;-19
2024/02/18 00:29:11;;;;;;;;;;;;;;;;;;2211254;66;1892;-19
2024/02/18 00:31:42;;;;;;;;;;;;;;;;;;2211812;66;1846;-19
2024/02/18 00:34:12;;;;;;;;;;;;;;;;;;2212210;59;2373;-19
2024/02/18 00:36:42;;;;;;;;;;;;;;;;;;2212363;59;1825;-19
2024/02/18 00:39:14;;;;;;;;;;;;;;;;;;2207383;67;2233;-20
2024/02/18 00:41:46;;;;;;;;;;;;;;;;;;2211236;59;2159;-19
2024/02/18 00:44:17;;;;;;;;;;;;;;;;;;2211423;66;2329;-19
2024/02/18 00:46:48;;;;;;;;;;;;;;;;;;2211841;67;2049;-19
2024/02/18 00:49:19;;;;;;;;;;;;;;;;;;2211788;59;1917;-19
2024/02/18 00:51:50;;;;;;;;;;;;;;;;;;2209545;59;1840;-19
2024/02/18 00:54:22;;;;;;;;;;;;;;;;;;2212238;59;2506;-19
2024/02/18 00:56:53;;;;;;;;;;;;;;;;;;2207108;67;1854;-19
2024/02/18 00:59:25;;;;;;;;;;;;;;;;;;2208710;67;2358;-19
2024/02/18 01:01:57;;;;;;;;;;;;;;;;;;2212411;66;1871;-19
2024/02/18 01:04:28;;;;;;;;;;;;;;;;;;2209122;59;1998;-20
2024/02/18 01:06:58;;;;;;;;;;;;;;;;;;2211307;66;2752;-19
2024/02/18 01:09:28;;;;;;;;;;;;;;;;;;2211254;67;3128;-19
2024/02/18 01:11:59;;;;;;;;;;;;;;;;;;2210704;66;1881;-19
2024/02/18 01:14:29;;;;;;;;;;;;;;;;;;2212072;59;1823;-19
2024/02/18 01:17:02;;;;;;;;;;;;;;;;;;2210875;66;2986;-19
2024/02/18 01:19:32;;;;;;;;;;;;;;;;;;2209459;59;2426;-19
2024/02/18 01:22:03;;;;;;;;;;;;;;;;;;2211266;59;1985;-19
2024/02/18 01:24:34;;;;;;;;;;;;;;;;;;2211590;66;1991;-19
2024/02/18 01:27:04;;;;;;;;;;;;;;;;;;2213179;66;2865;-19
2024/02/18 01:29:38;;;;;;;;;;;;;;;;;;2208944;67;1674;-20
2024/02/18 01:32:09;;;;;;;;;;;;;;;;;;2211410;66;2723;-19
2024/02/18 01:34:39;;;;;;;;;;;;;;;;;;2209370;59;2051;-19
2024/02/18 01:37:12;;;;;;;;;;;;;;;;;;2211264;59;2298;-19
2024/02/18 01:39:43;;;;;;;;;;;;;;;;;;2212062;66;3369;-19
2024/02/18 01:42:13;;;;;;;;;;;;;;;;;;2211774;59;1961;-19
2024/02/18 01:44:47;;;;;;;;;;;;;;;;;;2209367;67;2265;-19
2024/02/18 01:47:17;;;;;;;;;;;;;;;;;;2209471;67;1969;-19
2024/02/18 01:49:53;;;;;;;;;;;;;;;;;;2212276;59;1968;-19
2024/02/18 01:52:25;;;;;;;;;;;;;;;;;;2209292;59;1724;-19
2024/02/18 01:54:57;;;;;;;;;;;;;;;;;;2212568;59;2332;-19
2024/02/18 01:57:29;;;;;;;;;;;;;;;;;;2209765;59;1864;-19
2024/02/18 02:00:01;;;;;;;;;;;;;;;;;;2211676;59;1883;-19
2024/02/18 02:02:33;;;;;;;;;;;;;;;;;;2211864;59;1931;-19
2024/02/18 02:05:05;;;;;;;;;;;;;;;;;;2211957;66;2196;-19
2024/02/18 02:07:43;;;;;;;;;;;;;;;;;;2210981;66;2014;-19
2024/02/18 02:10:14;;;;;;;;;;;;;;;;;;2208029;67;2530;-20
2024/02/18 02:12:45;;;;;;;;;;;;;;;;;;2212151;67;2132;-19
2024/02/18 02:15:15;;;;;;;;;;;;;;;;;;2207743;59;2117;-19
2024/02/18 02:17:47;;;;;;;;;;;;;;;;;;2209735;67;2424;-19
2024/02/18 02:20:23;;;;;;;;;;;;;;;;;;2205946;66;1873;-19
2024/02/18 02:22:54;;;;;;;;;;;;;;;;;;2212111;59;1842;-19
2024/02/18 02:25:24;;;;;;;;;;;;;;;;;;2209503;66;2460;-19
2024/02/18 02:28:24;;;;;;;;;;;;;;;;;;2211991;59;1925;-19
2024/02/18 02:30:55;;;;;;;;;;;;;;;;;;2212449;63;1837;-19
2024/02/18 02:33:26;;;;;;;;;;;;;;;;;;2208743;59;2883;-19
2024/02/18 02:35:57;;;;;;;;;;;;;;;;;;2205782;67;2076;-19
2024/02/18 02:38:27;;;;;;;;;;;;;;;;;;2212642;59;1866;-19
2024/02/18 02:40:58;;;;;;;;;;;;;;;;;;2209300;59;2435;-19
2024/02/18 02:43:28;;;;;;;;;;;;;;;;;;2212885;67;2250;-19
2024/02/18 02:45:59;;;;;;;;;;;;;;;;;;2211799;67;2153;-19
2024/02/18 02:48:29;;;;;;;;;;;;;;;;;;2209866;59;2025;-19
2024/02/18 02:50:59;;;;;;;;;;;;;;;;;;2209584;59;1973;-19
2024/02/18 02:53:30;;;;;;;;;;;;;;;;;;2212367;59;2020;-20
2024/02/18 02:56:00;;;;;;;;;;;;;;;;;;2209114;59;1934;-19
2024/02/18 02:58:31;;;;;;;;;;;;;;;;;;2212680;66;2503;-19
2024/02/18 03:01:01;;;;;;;;;;;;;;;;;;2209880;67;1933;-19
2024/02/18 03:03:31;;;;;;;;;;;;;;;;;;2211658;67;1673;-19
2024/02/18 03:06:02;;;;;;;;;;;;;;;;;;2211979;67;2050;-19
2024/02/18 03:08:32;;;;;;;;;;;;;;;;;;2212086;66;1901;-19
2024/02/18 03:11:03;;;;;;;;;;;;;;;;;;2208583;67;2390;-19
2024/02/18 03:13:33;;;;;;;;;;;;;;;;;;2208650;59;2470;-19
2024/02/18 03:16:05;;;;;;;;;;;;;;;;;;2209387;67;2801;-19
2024/02/18 03:18:36;;;;;;;;;;;;;;;;;;2213095;67;2479;-19
2024/02/18 03:21:07;;;;;;;;;;;;;;;;;;2208063;67;2328;-19
2024/02/18 03:23:38;;;;;;;;;;;;;;;;;;2206259;67;2460;-19
2024/02/18 03:26:08;;;;;;;;;;;;;;;;;;2209580;67;2414;-19
2024/02/18 03:28:40;;;;;;;;;;;;;;;;;;2208396;67;1700;-19
2024/02/18 03:31:19;;;;;;;;;;;;;;;;;;2211312;67;3013;-19
2024/02/18 03:33:50;;;;;;;;;;;;;;;;;;2212293;59;2506;-19
2024/02/18 03:36:22;;;;;;;;;;;;;;;;;;2207928;59;2320;-19
2024/02/18 03:38:52;;;;;;;;;;;;;;;;;;2212636;59;2725;-19
2024/02/18 03:41:23;;;;;;;;;;;;;;;;;;2211429;59;1774;-19
2024/02/18 03:43:54;;;;;;;;;;;;;;;;;;2212267;59;2129;-19
2024/02/18 03:46:24;;;;;;;;;;;;;;;;;;2211754;66;2011;-19
2024/02/18 03:48:56;;;;;;;;;;;;;;;;;;2212799;58;1926;-19
2024/02/18 03:51:28;;;;;;;;;;;;;;;;;;2205121;59;3654;-19
2024/02/18 03:53:58;;;;;;;;;;;;;;;;;;2212589;59;2003;-19
2024/02/18 03:56:33;;;;;;;;;;;;;;;;;;2207947;59;2518;-19
2024/02/18 03:59:03;;;;;;;;;;;;;;;;;;2212204;66;1912;-19
2024/02/18 04:01:35;;;;;;;;;;;;;;;;;;2211286;59;2159;-18
2024/02/18 04:04:06;;;;;;;;;;;;;;;;;;2211056;66;2038;-18
2024/02/18 04:06:40;;;;;;;;;;;;;;;;;;2212323;66;2332;-19
2024/02/18 04:09:11;;;;;;;;;;;;;;;;;;2211292;66;1914;-18
2024/02/18 04:11:41;;;;;;;;;;;;;;;;;;2210298;67;2668;-19
2024/02/18 04:14:12;;;;;;;;;;;;;;;;;;2213683;58;1904;-19
2024/02/18 04:16:42;;;;;;;;;;;;;;;;;;2212283;66;3072;-19
2024/02/18 04:19:13;;;;;;;;;;;;;;;;;;2211724;66;2599;-19
2024/02/18 04:21:47;;;;;;;;;;;;;;;;;;2212336;66;2375;-19
2024/02/18 04:24:17;;;;;;;;;;;;;;;;;;2204068;59;1958;-19
2024/02/18 04:26:47;;;;;;;;;;;;;;;;;;2210138;67;1945;-19
2024/02/18 04:29:27;;;;;;;;;;;;;;;;;;2210869;66;1797;-19
2024/02/18 04:31:58;;;;;;;;;;;;;;;;;;2212240;66;2429;-19
2024/02/18 04:34:29;;;;;;;;;;;;;;;;;;2208780;59;2164;-19
2024/02/18 04:36:59;;;;;;;;;;;;;;;;;;2209468;59;1954;-19
2024/02/18 04:39:30;;;;;;;;;;;;;;;;;;2205675;59;2021;-19
2024/02/18 04:42:01;;;;;;;;;;;;;;;;;;2212092;59;2344;-19
2024/02/18 04:44:34;;;;;;;;;;;;;;;;;;2212067;59;2217;-19
2024/02/18 04:47:04;;;;;;;;;;;;;;;;;;2211112;67;2486;-19
2024/02/18 04:49:35;;;;;;;;;;;;;;;;;;2214249;58;1848;-19
2024/02/18 04:52:06;;;;;;;;;;;;;;;;;;2212230;58;2840;-19
2024/02/18 04:54:39;;;;;;;;;;;;;;;;;;2211446;59;1808;-19
2024/02/18 04:57:11;;;;;;;;;;;;;;;;;;2211527;59;2553;-19
2024/02/18 04:59:41;;;;;;;;;;;;;;;;;;2211847;66;2991;-19
2024/02/18 05:02:11;;;;;;;;;;;;;;;;;;2211622;59;2306;-19
2024/02/18 05:04:43;;;;;;;;;;;;;;;;;;2212385;66;1765;-19
2024/02/18 05:07:14;;;;;;;;;;;;;;;;;;2211738;67;2930;-19
2024/02/18 05:09:45;;;;;;;;;;;;;;;;;;2210103;67;2369;-19
2024/02/18 05:12:15;;;;;;;;;;;;;;;;;;2212813;66;2143;-19
2024/02/18 05:14:49;;;;;;;;;;;;;;;;;;2212642;59;2607;-19
2024/02/18 05:17:19;;;;;;;;;;;;;;;;;;2211467;59;1808;-19
2024/02/18 05:19:51;;;;;;;;;;;;;;;;;;2212325;66;2333;-19
2024/02/18 05:22:23;;;;;;;;;;;;;;;;;;2209338;59;2129;-19
2024/02/18 05:24:54;;;;;;;;;;;;;;;;;;2212249;67;2738;-19
2024/02/18 05:27:25;;;;;;;;;;;;;;;;;;2207424;67;2021;-19
2024/02/18 05:29:55;;;;;;;;;;;;;;;;;;2213373;66;2549;-19
2024/02/18 05:32:25;;;;;;;;;;;;;;;;;;2211131;59;1829;-19
2024/02/18 05:34:56;;;;;;;;;;;;;;;;;;2212756;66;2021;-19
2024/02/18 05:37:26;;;;;;;;;;;;;;;;;;2209634;59;1974;-19
2024/02/18 05:39:58;;;;;;;;;;;;;;;;;;2213286;59;1865;-19
2024/02/18 05:42:29;;;;;;;;;;;;;;;;;;2209731;59;2269;-20
2024/02/18 05:45:00;;;;;;;;;;;;;;;;;;2213778;59;2896;-20
2024/02/18 05:47:30;;;;;;;;;;;;;;;;;;2210449;59;1928;-20
2024/02/18 05:50:00;;;;;;;;;;;;;;;;;;2206827;67;2483;-20
2024/02/18 05:52:32;;;;;;;;;;;;;;;;;;2213284;59;2577;-20
2024/02/18 05:55:05;;;;;;;;;;;;;;;;;;2213466;59;2084;-20
2024/02/18 05:57:36;;;;;;;;;;;;;;;;;;2213010;59;2352;-20
2024/02/18 06:00:06;;;;;;;;;;;;;;;;;;2206885;67;2481;-20
2024/02/18 06:02:40;;;;;;;;;;;;;;;;;;2212811;66;1739;-20
2024/02/18 06:05:15;;;;;;;;;;;;;;;;;;2212683;66;2070;-20
2024/02/18 06:07:46;;;;;;;;;;;;;;;;;;2209979;67;2016;-20
2024/02/18 06:10:16;;;;;;;;;;;;;;;;;;2212595;66;2639;-20
2024/02/18 06:12:47;;;;;;;;;;;;;;;;;;2209381;66;1729;-20
2024/02/18 06:15:17;;;;;;;;;;;;;;;;;;2213226;66;2810;-20
2024/02/18 06:17:47;;;;;;;;;;;;;;;;;;2207520;59;2423;-20
2024/02/18 06:20:18;;;;;;;;;;;;;;;;;;2213541;66;2259;-20
2024/02/18 06:22:48;;;;;;;;;;;;;;;;;;2209742;67;1977;-21
2024/02/18 06:25:18;;;;;;;;;;;;;;;;;;2213117;66;2221;-20
2024/02/18 06:27:50;;;;;;;;;;;;;;;;;;2212673;66;2637;-20
2024/02/18 06:30:21;;;;;;;;;;;;;;;;;;2212161;66;2397;-20
2024/02/18 06:32:54;;;;;;;;;;;;;;;;;;2210079;59;2499;-20
2024/02/18 06:35:24;;;;;;;;;;;;;;;;;;2212528;66;2466;-20
2024/02/18 06:37:55;;;;;;;;;;;;;;;;;;2213851;59;1989;-20
2024/02/18 06:40:27;;;;;;;;;;;;;;;;;;2212742;66;2424;-20
2024/02/18 06:42:58;;;;;;;;;;;;;;;;;;2210820;59;2706;-20
2024/02/18 06:45:29;;;;;;;;;;;;;;;;;;2210543;67;2333;-20
2024/02/18 06:47:59;;;;;;;;;;;;;;;;;;2213391;59;2429;-20
2024/02/18 06:50:29;;;;;;;;;;;;;;;;;;2212564;59;2472;-20
2024/02/18 06:53:01;;;;;;;;;;;;;;;;;;2212941;66;2467;-20
2024/02/18 06:55:31;;;;;;;;;;;;;;;;;;2212878;59;2602;-20
2024/02/18 06:58:02;;;;;;;;;;;;;;;;;;2212274;59;1782;-20
2024/02/18 07:00:32;;;;;;;;;;;;;;;;;;2212406;66;1797;-20
2024/02/18 07:03:06;;;;;;;;;;;;;;;;;;2211185;67;2097;-20
2024/02/18 07:05:36;;;;;;;;;;;;;;;;;;2208969;66;2848;-20
2024/02/18 07:08:06;;;;;;;;;;;;;;;;;;2213265;66;2458;-20
2024/02/18 07:10:38;;;;;;;;;;;;;;;;;;2214499;66;2535;-20
2024/02/18 07:13:08;;;;;;;;;;;;;;;;;;2212720;59;1620;-20
2024/02/18 07:15:38;;;;;;;;;;;;;;;;;;2212004;59;1901;-20
2024/02/18 07:18:09;;;;;;;;;;;;;;;;;;2212580;59;1132;-20
2024/02/18 07:20:39;;;;;;;;;;;;;;;;;;2212199;66;1657;-20
2024/02/18 07:23:11;;;;;;;;;;;;;;;;;;2212920;59;2001;-20
2024/02/18 07:25:42;;;;;;;;;;;;;;;;;;2211693;59;2326;-20
2024/02/18 07:28:12;;;;;;;;;;;;;;;;;;2212727;67;1962;-20
2024/02/18 07:30:42;;;;;;;;;;;;;;;;;;2209763;59;2423;-29
2024/02/18 07:33:14;;;;;;;;;;;;;;;;;;2212127;59;2004;-20
2024/02/18 07:35:44;;;;;;;;;;;;;;;;;;2210011;59;1915;-20
2024/02/18 07:38:15;;;;;;;;;;;;;;;;;;2209154;59;2196;-20
2024/02/18 07:40:45;;;;;;;;;;;;;;;;;;2212161;58;2144;-20
2024/02/18 07:43:15;;;;;;;;;;;;;;;;;;2209969;59;2255;-20
2024/02/18 07:45:46;;;;;;;;;;;;;;;;;;2213156;59;1936;-20
2024/02/18 07:48:16;;;;;;;;;;;;;;;;;;2210032;59;2254;-20
2024/02/18 07:50:48;;;;;;;;;;;;;;;;;;2212766;59;2473;-20
2024/02/18 07:53:18;;;;;;;;;;;;;;;;;;2212090;59;2202;-20
2024/02/18 07:55:49;;;;;;;;;;;;;;;;;;2211498;59;1975;-20
2024/02/18 07:58:19;;;;;;;;;;;;;;;;;;2210542;66;2005;-20
2024/02/18 08:00:51;;;;;;;;;;;;;;;;;;2212326;59;2945;-20
2024/02/18 08:03:24;;;;;;;;;;;;;;;;;;2210775;66;2612;-20
2024/02/18 08:05:55;;;;;;;;;;;;;;;;;;2211002;59;1867;-20
2024/02/18 08:08:25;;;;;;;;;;;;;;;;;;2210557;67;1943;-20
2024/02/18 08:10:55;;;;;;;;;;;;;;;;;;2211800;66;2366;-20
2024/02/18 08:13:27;;;;;;;;;;;;;;;;;;2210561;59;1854;-21
2024/02/18 08:15:58;;;;;;;;;;;;;;;;;;2211405;67;2107;-20
2024/02/18 08:18:29;;;;;;;;;;;;;;;;;;2208767;67;1986;-20
2024/02/18 08:20:59;;;;;;;;;;;;;;;;;;2212765;67;2823;-20
2024/02/18 08:23:29;;;;;;;;;;;;;;;;;;2212044;59;2368;-20
2024/02/18 08:26:00;;;;;;;;;;;;;;;;;;2212171;67;1915;-20
2024/02/18 08:28:30;;;;;;;;;;;;;;;;;;2211127;66;3099;-20
2024/02/18 08:31:04;;;;;;;;;;;;;;;;;;2214406;66;2613;-20
2024/02/18 08:33:35;;;;;;;;;;;;;;;;;;2209079;59;2176;-20
2024/02/18 08:36:06;;;;;;;;;;;;;;;;;;2212010;67;2539;-20
2024/02/18 08:38:38;;;;;;;;;;;;;;;;;;2211965;59;2597;-20
2024/02/18 08:41:09;;;;;;;;;;;;;;;;;;2212523;59;2322;-20
2024/02/18 08:43:40;;;;;;;;;;;;;;;;;;2210294;59;2144;-19
2024/02/18 08:46:12;;;;;;;;;;;;;;;;;;2211615;67;2184;-19
2024/02/18 08:48:44;;;;;;;;;;;;;;;;;;2210471;59;1970;-19
2024/02/18 08:51:14;;;;;;;;;;;;;;;;;;2211223;58;2399;-19
2024/02/18 08:53:44;;;;;;;;;;;;;;;;;;2209000;59;2041;-19
2024/02/18 08:56:16;;;;;;;;;;;;;;;;;;2210402;59;2885;-19
2024/02/18 08:58:46;;;;;;;;;;;;;;;;;;2209329;59;3014;-18
2024/02/18 09:01:20;;;;;;;;;;;;;;;;;;2206432;59;2451;-19
2024/02/18 09:03:50;;;;;;;;;;;;;;;;;;2210180;59;2467;-19
2024/02/18 09:06:22;;;;;;;;;;;;;;;;;;2208754;59;3333;-18
2024/02/18 09:08:52;;;;;;;;;;;;;;;;;;2209997;59;2044;-29
2024/02/18 09:11:32;;;;;;;;;;;;;;;;;;2211082;59;3421;-18
2024/02/18 09:14:02;;;;;;;;;;;;;;;;;;2209112;59;2226;-19
2024/02/18 09:16:32;;;;;;;;;;;;;;;;;;2207518;67;2487;-18
2024/02/18 09:19:04;;;;;;;;;;;;;;;;;;2212239;66;2389;-19
2024/02/18 09:21:35;;;;;;;;;;;;;;;;;;2209789;59;2684;-19
2024/02/18 09:24:05;;;;;;;;;;;;;;;;;;2213478;58;2305;-19
2024/02/18 09:26:36;;;;;;;;;;;;;;;;;;2211137;59;2339;-19
2024/02/18 09:29:07;;;;;;;;;;;;;;;;;;2211911;59;3992;-19
2024/02/18 09:31:37;;;;;;;;;;;;;;;;;;2210204;59;2245;-18
2024/02/18 09:34:07;;;;;;;;;;;;;;;;;;2211491;59;2825;-19
2024/02/18 09:36:38;;;;;;;;;;;;;;;;;;2207833;59;2286;-18
2024/02/18 09:39:11;;;;;;;;;;;;;;;;;;2211724;59;2627;-18
2024/02/18 09:41:45;;;;;;;;;;;;;;;;;;2210985;59;2616;-19
2024/02/18 09:44:20;;;;;;;;;;;;;;;;;;2208394;59;2251;-18
2024/02/18 09:46:54;;;;;;;;;;;;;;;;;;2210904;66;3218;-18
2024/02/18 09:49:27;;;;;;;;;;;;;;;;;;2210694;59;2637;-19
2024/02/18 09:51:58;;;;;;;;;;;;;;;;;;2207718;59;2198;-19
2024/02/18 09:54:38;;;;;;;;;;;;;;;;;;2211274;59;2564;-18
2024/02/18 09:57:08;;;;;;;;;;;;;;;;;;2211855;59;2266;-19
2024/02/18 09:59:40;;;;;;;;;;;;;;;;;;2208135;59;2626;-18
2024/02/18 10:02:12;;;;;;;;;;;;;;;;;;2211389;66;2500;-18
2024/02/18 10:04:46;;;;;;;;;;;;;;;;;;2210610;59;2627;-19
2024/02/18 10:07:18;;;;;;;;;;;;;;;;;;2211433;66;2631;-18
2024/02/18 10:09:51;;;;;;;;;;;;;;;;;;2210837;59;3065;-18
2024/02/18 10:12:22;;;;;;;;;;;;;;;;;;2212185;59;2298;-19
2024/02/18 10:14:58;;;;;;;;;;;;;;;;;;2210864;59;2714;-18
2024/02/18 10:17:30;;;;;;;;;;;;;;;;;;2210407;59;2552;-18
2024/02/18 10:20:00;;;;;;;;;;;;;;;;;;2208544;59;2465;-19
2024/02/18 10:22:33;;;;;;;;;;;;;;;;;;2210992;66;2149;-18
2024/02/18 10:25:07;;;;;;;;;;;;;;;;;;2211542;67;2320;-19
2024/02/18 10:27:39;;;;;;;;;;;;;;;;;;2210934;66;2332;-18
2024/02/18 10:30:11;;;;;;;;;;;;;;;;;;2211702;66;1956;-19
2024/02/18 10:32:41;;;;;;;;;;;;;;;;;;2210404;59;2561;-18
2024/02/18 10:35:12;;;;;;;;;;;;;;;;;;2208368;59;2092;-19
2024/02/18 10:37:43;;;;;;;;;;;;;;;;;;2210754;59;2248;-18
2024/02/18 10:40:46;;;;;;;;;;;;;;;;;;2211039;59;2764;-18
2024/02/18 10:43:19;;;;;;;;;;;;;;;;;;2205474;59;2051;-18
2024/02/18 10:45:50;;;;;;;;;;;;;;;;;;2211553;66;1795;-18
2024/02/18 10:48:21;;;;;;;;;;;;;;;;;;2212009;59;1996;-18
2024/02/18 10:50:53;;;;;;;;;;;;;;;;;;2210660;66;2037;-18
2024/02/18 10:53:28;;;;;;;;;;;;;;;;;;2212500;59;2139;-18
2024/02/18 10:56:11;;;;;;;;;;;;;;;;;;2208956;67;2407;-19
2024/02/18 10:58:54;;;;;;;;;;;;;;;;;;2211624;66;1901;-18
2024/02/18 11:01:27;;;;;;;;;;;;;;;;;;2212558;59;2560;-18
2024/02/18 11:04:17;;;;;;;;;;;;;;;;;;2212128;59;1765;-18
2024/02/18 11:06:48;;;;;;;;;;;;;;;;;;2212002;59;2482;-18
2024/02/18 11:09:21;;;;;;;;;;;;;;;;;;2211699;64;2560;-18
2024/02/18 11:11:58;;;;;;;;;;;;;;;;;;2211500;66;2390;-18
2024/02/18 11:14:29;;;;;;;;;;;;;;;;;;2205045;59;2866;-18
2024/02/18 11:17:00;;;;;;;;;;;;;;;;;;2211804;59;2160;-18
2024/02/18 11:19:34;;;;;;;;;;;;;;;;;;2204360;66;1869;-18
2024/02/18 11:22:04;;;;;;;;;;;;;;;;;;2211314;67;1820;-18
2024/02/18 11:24:35;;;;;;;;;;;;;;;;;;2211639;59;2061;-18
2024/02/18 11:27:05;;;;;;;;;;;;;;;;;;2209489;66;2033;-18
2024/02/18 11:29:51;;;;;;;;;;;;;;;;;;2211356;67;2282;-18
2024/02/18 11:32:22;;;;;;;;;;;;;;;;;;2212677;59;2726;-18
2024/02/18 11:34:52;;;;;;;;;;;;;;;;;;2210710;59;2076;-19
2024/02/18 11:37:33;;;;;;;;;;;;;;;;;;2209364;59;1659;-19
2024/02/18 11:40:09;;;;;;;;;;;;;;;;;;2209377;67;2749;-19
2024/02/18 11:42:40;;;;;;;;;;;;;;;;;;2208649;59;1948;-18
2024/02/18 11:45:15;;;;;;;;;;;;;;;;;;2212611;59;2720;-18
2024/02/18 11:47:55;;;;;;;;;;;;;;;;;;2208168;59;2064;-18
2024/02/18 11:50:25;;;;;;;;;;;;;;;;;;2209921;67;1913;-18
2024/02/18 11:52:57;;;;;;;;;;;;;;;;;;2207331;59;3725;-18
2024/02/18 11:55:28;;;;;;;;;;;;;;;;;;2209913;59;2189;-19
2024/02/18 11:57:59;;;;;;;;;;;;;;;;;;2207790;59;1735;-18
2024/02/18 12:00:29;;;;;;;;;;;;;;;;;;2206720;59;2613;-18
2024/02/18 12:03:00;;;;;;;;;;;;;;;;;;2211147;59;2821;-18
2024/02/18 12:05:30;;;;;;;;;;;;;;;;;;2211171;66;2249;-18
2024/02/18 12:08:03;;;;;;;;;;;;;;;;;;2212725;59;2017;-18
2024/02/18 12:10:39;;;;;;;;;;;;;;;;;;2208647;67;2829;-18
2024/02/18 12:13:09;;;;;;;;;;;;;;;;;;2211416;66;3380;-18
2024/02/18 12:15:44;;;;;;;;;;;;;;;;;;2209030;59;2038;-18
2024/02/18 12:18:16;;;;;;;;;;;;;;;;;;2210527;66;1954;-18
2024/02/18 12:20:49;;;;;;;;;;;;;;;;;;2207386;59;1857;-18
2024/02/18 12:23:28;;;;;;;;;;;;;;;;;;2211019;59;2102;-18
2024/02/18 12:25:58;;;;;;;;;;;;;;;;;;2208511;67;2351;-19
2024/02/18 12:28:29;;;;;;;;;;;;;;;;;;2207228;67;1913;-18
2024/02/18 12:30:59;;;;;;;;;;;;;;;;;;2211682;59;2851;-18
2024/02/18 12:33:32;;;;;;;;;;;;;;;;;;2212210;59;2488;-18
2024/02/18 12:36:03;;;;;;;;;;;;;;;;;;2212606;63;2694;-18
2024/02/18 12:38:33;;;;;;;;;;;;;;;;;;2211052;59;1882;-18
2024/02/18 12:41:04;;;;;;;;;;;;;;;;;;2210779;59;2420;-18
2024/02/18 12:43:35;;;;;;;;;;;;;;;;;;2211807;59;2235;-18
2024/02/18 12:46:07;;;;;;;;;;;;;;;;;;2211763;66;1937;-18
2024/02/18 12:48:37;;;;;;;;;;;;;;;;;;2211406;59;2040;-18
2024/02/18 12:51:09;;;;;;;;;;;;;;;;;;2210769;59;1911;-18
2024/02/18 12:53:41;;;;;;;;;;;;;;;;;;2209362;59;2113;-18
2024/02/18 12:56:15;;;;;;;;;;;;;;;;;;2210181;67;2230;-18
2024/02/18 12:58:45;;;;;;;;;;;;;;;;;;2207883;67;1832;-18
2024/02/18 13:01:15;;;;;;;;;;;;;;;;;;2211136;59;1928;-18
2024/02/18 13:03:51;;;;;;;;;;;;;;;;;;2211079;59;3057;-18
2024/02/18 13:06:24;;;;;;;;;;;;;;;;;;2210450;59;1837;-18
2024/02/18 13:08:54;;;;;;;;;;;;;;;;;;2211026;59;1978;-18
2024/02/18 13:11:25;;;;;;;;;;;;;;;;;;2208128;59;2717;-18
2024/02/18 13:14:02;;;;;;;;;;;;;;;;;;2211574;59;2422;-18
2024/02/18 13:16:33;;;;;;;;;;;;;;;;;;2212683;66;1990;-18
2024/02/18 13:19:07;;;;;;;;;;;;;;;;;;2211260;66;2556;-19
2024/02/18 13:21:37;;;;;;;;;;;;;;;;;;2211857;59;1790;-18
2024/02/18 13:24:07;;;;;;;;;;;;;;;;;;2211882;66;2114;-18
2024/02/18 13:26:38;;;;;;;;;;;;;;;;;;2208019;66;1944;-18
2024/02/18 13:29:08;;;;;;;;;;;;;;;;;;2209463;67;2094;-18
2024/02/18 13:31:41;;;;;;;;;;;;;;;;;;2212175;59;2484;-18
2024/02/18 13:34:16;;;;;;;;;;;;;;;;;;2212166;59;1978;-19
2024/02/18 13:36:49;;;;;;;;;;;;;;;;;;2205254;59;1895;-18
2024/02/18 13:39:20;;;;;;;;;;;;;;;;;;2207659;59;2845;-18
2024/02/18 13:41:51;;;;;;;;;;;;;;;;;;2212078;59;2018;-18
2024/02/18 13:44:21;;;;;;;;;;;;;;;;;;2212198;66;1977;-18
2024/02/18 13:46:54;;;;;;;;;;;;;;;;;;2211025;66;3184;-18
2024/02/18 13:49:26;;;;;;;;;;;;;;;;;;2205738;59;1804;-18
2024/02/18 13:51:57;;;;;;;;;;;;;;;;;;2208562;59;2868;-19
2024/02/18 13:54:27;;;;;;;;;;;;;;;;;;2214012;59;2039;-18
2024/02/18 13:56:58;;;;;;;;;;;;;;;;;;2213387;59;2953;-18
2024/02/18 13:59:28;;;;;;;;;;;;;;;;;;2212735;59;1760;-18
2024/02/18 14:02:00;;;;;;;;;;;;;;;;;;2210055;59;1825;-18
2024/02/18 14:04:30;;;;;;;;;;;;;;;;;;2211744;66;2076;-18
2024/02/18 14:07:01;;;;;;;;;;;;;;;;;;2207771;66;2911;-18
2024/02/18 14:09:32;;;;;;;;;;;;;;;;;;2208257;66;1812;-18
2024/02/18 14:12:06;;;;;;;;;;;;;;;;;;2211126;66;1880;-18
2024/02/18 14:14:41;;;;;;;;;;;;;;;;;;2209090;59;2712;-18
2024/02/18 14:17:12;;;;;;;;;;;;;;;;;;2210742;66;1886;-18
2024/02/18 14:19:42;;;;;;;;;;;;;;;;;;2208204;66;2489;-18
2024/02/18 14:22:13;;;;;;;;;;;;;;;;;;2211643;59;2028;-18
2024/02/18 14:24:43;;;;;;;;;;;;;;;;;;2210012;58;2323;-18
2024/02/18 14:27:15;;;;;;;;;;;;;;;;;;2208981;67;1935;-18
2024/02/18 14:29:47;;;;;;;;;;;;;;;;;;2207700;67;1908;-18
2024/02/18 14:32:20;;;;;;;;;;;;;;;;;;2212469;59;2521;-18
2024/02/18 14:34:54;;;;;;;;;;;;;;;;;;2211183;59;1893;-18
2024/02/18 14:37:26;;;;;;;;;;;;;;;;;;2210790;59;1832;-18
2024/02/18 14:39:58;;;;;;;;;;;;;;;;;;2206901;59;2576;-18
2024/02/18 14:42:29;;;;;;;;;;;;;;;;;;2211119;59;2322;-18
2024/02/18 14:45:00;;;;;;;;;;;;;;;;;;2211103;58;2371;-18
2024/02/18 14:47:30;;;;;;;;;;;;;;;;;;2210101;58;2414;-18
2024/02/18 14:50:01;;;;;;;;;;;;;;;;;;2207225;67;1886;-18
2024/02/18 14:52:31;;;;;;;;;;;;;;;;;;2210054;67;2488;-18
2024/02/18 14:55:01;;;;;;;;;;;;;;;;;;2211182;66;2463;-18
2024/02/18 14:57:32;;;;;;;;;;;;;;;;;;2207538;67;2085;-18
2024/02/18 15:00:08;;;;;;;;;;;;;;;;;;2207148;67;2711;-18
2024/02/18 15:02:40;;;;;;;;;;;;;;;;;;2211735;59;2342;-18
2024/02/18 15:05:12;;;;;;;;;;;;;;;;;;2211751;66;3283;-18
2024/02/18 15:07:45;;;;;;;;;;;;;;;;;;2204648;59;2494;-18
2024/02/18 15:10:17;;;;;;;;;;;;;;;;;;2210893;59;2154;-18
2024/02/18 15:12:49;;;;;;;;;;;;;;;;;;2207055;59;2415;-18
2024/02/18 15:15:21;;;;;;;;;;;;;;;;;;2211758;59;2649;-18
2024/02/18 15:17:51;;;;;;;;;;;;;;;;;;2210594;59;1904;-18
2024/02/18 15:20:23;;;;;;;;;;;;;;;;;;2209702;67;2905;-18
2024/02/18 15:22:54;;;;;;;;;;;;;;;;;;2211583;67;2145;-18
2024/02/18 15:25:25;;;;;;;;;;;;;;;;;;2208689;67;2261;-18
2024/02/18 15:28:01;;;;;;;;;;;;;;;;;;2216123;66;2014;-15
2024/02/18 15:30:33;;;;;;;;;;;;;;;;;;2211186;59;1741;-15
2024/02/18 15:33:03;;;;;;;;;;;;;;;;;;2211372;59;2383;-15
2024/02/18 15:35:35;;;;;;;;;;;;;;;;;;2213031;66;2403;-15
2024/02/18 15:38:08;;;;;;;;;;;;;;;;;;2211930;59;1813;-16
2024/02/18 15:40:38;;;;;;;;;;;;;;;;;;2208088;59;2086;-16
2024/02/18 15:43:11;;;;;;;;;;;;;;;;;;2211048;66;2048;-15
2024/02/18 15:45:41;;;;;;;;;;;;;;;;;;2212762;66;1944;-16
2024/02/18 15:48:13;;;;;;;;;;;;;;;;;;2211283;59;2506;-15
2024/02/18 15:50:45;;;;;;;;;;;;;;;;;;2208482;66;2032;-15
2024/02/18 15:53:15;;;;;;;;;;;;;;;;;;2211638;66;2620;-16
2024/02/18 15:55:46;;;;;;;;;;;;;;;;;;2207767;58;2088;-16
2024/02/18 15:58:16;;;;;;;;;;;;;;;;;;2209508;59;2245;-16
2024/02/18 16:00:49;;;;;;;;;;;;;;;;;;2211599;66;2620;-16
2024/02/18 16:03:19;;;;;;;;;;;;;;;;;;2208740;59;2339;-16
2024/02/18 16:05:50;;;;;;;;;;;;;;;;;;2211929;59;2225;-16
2024/02/18 16:08:20;;;;;;;;;;;;;;;;;;2210322;66;2104;-16
2024/02/18 16:10:50;;;;;;;;;;;;;;;;;;2209802;59;3139;-15
2024/02/18 16:13:22;;;;;;;;;;;;;;;;;;2212339;59;1873;-16
2024/02/18 16:15:53;;;;;;;;;;;;;;;;;;2211042;66;2085;-16
2024/02/18 16:18:26;;;;;;;;;;;;;;;;;;2212360;66;2288;-15
2024/02/18 16:20:59;;;;;;;;;;;;;;;;;;2210857;66;2815;-16
2024/02/18 16:23:31;;;;;;;;;;;;;;;;;;2212252;66;2955;-16
2024/02/18 16:26:12;;;;;;;;;;;;;;;;;;2214833;58;2685;-15
2024/02/18 16:28:46;;;;;;;;;;;;;;;;;;2224187;66;1771;-16
2024/02/18 16:31:19;;;;;;;;;;;;;;;;;;2226112;58;2788;-15
2024/02/18 16:33:51;;;;;;;;;;;;;;;;;;2221292;58;2621;-16
2024/02/18 16:36:21;;;;;;;;;;;;;;;;;;2226657;58;2717;-16
2024/02/18 16:38:54;;;;;;;;;;;;;;;;;;2220656;66;1841;-17
2024/02/18 16:41:24;;;;;;;;;;;;;;;;;;2224790;58;2209;-16
2024/02/18 16:43:54;;;;;;;;;;;;;;;;;;2219314;58;2130;-16
2024/02/18 16:46:25;;;;;;;;;;;;;;;;;;2224377;66;2694;-15
2024/02/18 16:48:55;;;;;;;;;;;;;;;;;;2223382;62;1857;-16
2024/02/18 16:51:28;;;;;;;;;;;;;;;;;;2224787;58;2016;-15
2024/02/18 16:54:00;;;;;;;;;;;;;;;;;;2223578;58;2644;-15
2024/02/18 16:56:31;;;;;;;;;;;;;;;;;;2223887;58;2372;-16
2024/02/18 16:59:01;;;;;;;;;;;;;;;;;;2220803;66;3382;-16
2024/02/18 17:01:34;;;;;;;;;;;;;;;;;;2224069;58;2355;-15
2024/02/18 17:04:07;;;;;;;;;;;;;;;;;;2219173;58;2580;-16
2024/02/18 17:06:42;;;;;;;;;;;;;;;;;;2221964;66;3217;-16
2024/02/18 17:09:16;;;;;;;;;;;;;;;;;;2218538;66;2717;-15
2024/02/18 17:11:47;;;;;;;;;;;;;;;;;;2220370;66;1914;-16
2024/02/18 17:14:17;;;;;;;;;;;;;;;;;;2223575;58;2316;-16
2024/02/18 17:16:48;;;;;;;;;;;;;;;;;;2223983;58;2472;-15
2024/02/18 17:19:18;;;;;;;;;;;;;;;;;;2220254;66;3254;-15
2024/02/18 17:21:52;;;;;;;;;;;;;;;;;;2224873;59;2184;-15
2024/02/18 17:24:27;;;;;;;;;;;;;;;;;;2222547;58;2164;-15
2024/02/18 17:26:58;;;;;;;;;;;;;;;;;;2220802;58;2133;-15
2024/02/18 17:29:28;;;;;;;;;;;;;;;;;;2222294;63;2259;-16
2024/02/18 17:31:59;;;;;;;;;;;;;;;;;;2222531;66;2241;-15
2024/02/18 17:34:34;;;;;;;;;;;;;;;;;;2223766;58;2517;-16